Time;durP1;ratioP1;P1;durP2;ratioP2;P2;SDS_P1;SDS_P2;PMS_P1;PMS_P2;Temp;Humidity;BMP_temperature;BMP_pressure;BME280_temperature;BME280_humidity;BME280_pressure;Samples;Min_cycle;Max_cycle;Signal;HPM_P1;HPM_P2
2022/08/31 00:06:03;;;;;;;;;;;;;;;;;;5074819;28;20042;-79
2022/08/31 00:08:29;;;;;;;;;;;;;;;;;;5056749;28;19982;-79
2022/08/31 00:10:54;;;;;;;;;;;;;;;;;;5073949;28;19978;-78
2022/08/31 00:13:22;;;;;;;;;;;;;;;;;;5074453;28;20389;-78
2022/08/31 00:15:48;;;;;;;;;;;;;;;;;;5072730;28;19981;-78
2022/08/31 00:18:13;;;;;;;;;;;;;;;;;;5073868;28;19924;-78
2022/08/31 00:20:39;;;;;;;;;;;;;;;;;;5056921;28;20370;-78
2022/08/31 00:23:05;;;;;;;;;;;;;;;;;;5074319;28;20015;-78
2022/08/31 00:25:30;;;;;;;;;;;;;;;;;;5056154;28;19962;-78
2022/08/31 00:27:56;;;;;;;;;;;;;;;;;;5074218;28;19920;-78
2022/08/31 00:30:21;;;;;;;;;;;;;;;;;;5055904;28;19966;-78
2022/08/31 00:32:46;;;;;;;;;;;;;;;;;;5055425;28;20002;-78
2022/08/31 00:35:11;;;;;;;;;;;;;;;;;;5055577;28;19916;-78
2022/08/31 00:37:37;;;;;;;;;;;;;;;;;;5055401;28;20406;-79
2022/08/31 00:40:03;;;;;;;;;;;;;;;;;;5072174;28;19919;-78
2022/08/31 00:42:28;;;;;;;;;;;;;;;;;;5072947;28;19917;-78
2022/08/31 00:44:53;;;;;;;;;;;;;;;;;;5074521;28;19917;-78
2022/08/31 00:47:18;;;;;;;;;;;;;;;;;;5074736;28;19952;-78
2022/08/31 00:49:46;;;;;;;;;;;;;;;;;;5073218;28;19966;-78
2022/08/31 00:52:15;;;;;;;;;;;;;;;;;;5072707;28;19912;-78
2022/08/31 00:54:42;;;;;;;;;;;;;;;;;;5072215;28;19975;-79
2022/08/31 00:57:08;;;;;;;;;;;;;;;;;;5054751;28;19970;-78
2022/08/31 00:59:33;;;;;;;;;;;;;;;;;;5072018;28;19952;-78
2022/08/31 01:01:59;;;;;;;;;;;;;;;;;;5071712;28;19912;-78
2022/08/31 01:04:25;;;;;;;;;;;;;;;;;;5054902;28;19912;-78
2022/08/31 01:06:50;;;;;;;;;;;;;;;;;;5055035;28;20423;-78
2022/08/31 01:09:15;;;;;;;;;;;;;;;;;;5071828;28;19919;-78
2022/08/31 01:11:41;;;;;;;;;;;;;;;;;;5072829;28;19923;-78
2022/08/31 01:14:07;;;;;;;;;;;;;;;;;;5072519;28;19913;-78
2022/08/31 01:16:35;;;;;;;;;;;;;;;;;;5056192;28;19987;-78
2022/08/31 01:19:02;;;;;;;;;;;;;;;;;;5074250;28;19928;-79
2022/08/31 01:21:29;;;;;;;;;;;;;;;;;;5056285;28;19931;-78
2022/08/31 01:23:56;;;;;;;;;;;;;;;;;;5075441;28;20452;-78
2022/08/31 01:26:22;;;;;;;;;;;;;;;;;;5075756;28;19916;-79
2022/08/31 01:28:47;;;;;;;;;;;;;;;;;;5076241;28;19948;-79
2022/08/31 01:31:24;;;;;;;;;;;;;;;;;;5077253;28;20417;-79
2022/08/31 01:33:49;;;;;;;;;;;;;;;;;;5060393;28;19951;-79
2022/08/31 01:36:14;;;;;;;;;;;;;;;;;;5078517;28;20291;-79
2022/08/31 01:38:40;;;;;;;;;;;;;;;;;;5060267;28;20013;-79
2022/08/31 01:41:05;;;;;;;;;;;;;;;;;;5078550;28;20436;-79
2022/08/31 01:43:34;;;;;;;;;;;;;;;;;;5078781;28;19944;-79
2022/08/31 01:46:00;;;;;;;;;;;;;;;;;;5079590;28;20398;-78
2022/08/31 01:48:26;;;;;;;;;;;;;;;;;;5060018;28;19946;-79
2022/08/31 01:50:51;;;;;;;;;;;;;;;;;;5058589;28;20352;-78
2022/08/31 01:53:16;;;;;;;;;;;;;;;;;;5075954;28;19928;-78
2022/08/31 01:55:41;;;;;;;;;;;;;;;;;;5076607;28;19944;-78
2022/08/31 01:58:07;;;;;;;;;;;;;;;;;;5058486;28;20011;-79
2022/08/31 02:00:32;;;;;;;;;;;;;;;;;;5075231;28;20283;-80
2022/08/31 02:02:59;;;;;;;;;;;;;;;;;;5075186;28;19924;-78
2022/08/31 02:05:24;;;;;;;;;;;;;;;;;;5057801;28;19913;-78
2022/08/31 02:07:49;;;;;;;;;;;;;;;;;;5076223;28;19939;-78
2022/08/31 02:10:14;;;;;;;;;;;;;;;;;;5057790;28;19922;-78
2022/08/31 02:12:40;;;;;;;;;;;;;;;;;;5075947;28;19977;-79
2022/08/31 02:15:05;;;;;;;;;;;;;;;;;;5076151;28;19917;-79
2022/08/31 02:17:30;;;;;;;;;;;;;;;;;;5076098;28;19921;-79
2022/08/31 02:19:57;;;;;;;;;;;;;;;;;;5058131;28;19969;-79
2022/08/31 02:22:22;;;;;;;;;;;;;;;;;;5075802;28;19925;-79
2022/08/31 02:24:47;;;;;;;;;;;;;;;;;;5074961;28;20127;-78
2022/08/31 02:27:12;;;;;;;;;;;;;;;;;;5057485;28;20371;-78
2022/08/31 02:29:38;;;;;;;;;;;;;;;;;;5074959;28;19920;-78
2022/08/31 02:32:03;;;;;;;;;;;;;;;;;;5076126;28;19917;-78
2022/08/31 02:34:29;;;;;;;;;;;;;;;;;;5074663;28;20007;-78
2022/08/31 02:36:54;;;;;;;;;;;;;;;;;;5057970;28;19968;-78
2022/08/31 02:39:19;;;;;;;;;;;;;;;;;;5057775;28;19934;-78
2022/08/31 02:41:45;;;;;;;;;;;;;;;;;;5075699;28;19944;-79
2022/08/31 02:44:10;;;;;;;;;;;;;;;;;;5075239;28;19912;-79
2022/08/31 02:46:35;;;;;;;;;;;;;;;;;;5076011;28;19908;-78
2022/08/31 02:49:01;;;;;;;;;;;;;;;;;;5075809;28;19916;-78
2022/08/31 02:51:26;;;;;;;;;;;;;;;;;;5077483;28;20335;-78
2022/08/31 02:53:51;;;;;;;;;;;;;;;;;;5076520;28;19920;-78
2022/08/31 02:56:17;;;;;;;;;;;;;;;;;;5058610;28;20368;-79
2022/08/31 02:58:42;;;;;;;;;;;;;;;;;;5076353;28;19916;-79
2022/08/31 03:01:07;;;;;;;;;;;;;;;;;;5075748;28;19928;-78
2022/08/31 03:03:33;;;;;;;;;;;;;;;;;;5074889;28;19919;-79
2022/08/31 03:05:59;;;;;;;;;;;;;;;;;;5074218;28;19938;-78
2022/08/31 03:08:24;;;;;;;;;;;;;;;;;;5075405;28;20346;-78
2022/08/31 03:10:50;;;;;;;;;;;;;;;;;;5057353;28;20023;-78
2022/08/31 03:13:15;;;;;;;;;;;;;;;;;;5073687;28;19959;-78
2022/08/31 03:15:40;;;;;;;;;;;;;;;;;;5074594;28;19927;-78
2022/08/31 03:18:06;;;;;;;;;;;;;;;;;;5073193;28;20378;-78
2022/08/31 03:20:31;;;;;;;;;;;;;;;;;;5056352;28;19960;-78
2022/08/31 03:22:56;;;;;;;;;;;;;;;;;;5075372;28;19925;-79
2022/08/31 03:25:22;;;;;;;;;;;;;;;;;;5057783;28;19917;-78
2022/08/31 03:27:47;;;;;;;;;;;;;;;;;;5076396;28;19922;-78
2022/08/31 03:30:14;;;;;;;;;;;;;;;;;;5077211;28;19917;-78
2022/08/31 03:32:39;;;;;;;;;;;;;;;;;;5075133;28;19913;-79
2022/08/31 03:35:05;;;;;;;;;;;;;;;;;;5074197;28;19973;-79
2022/08/31 03:37:30;;;;;;;;;;;;;;;;;;5076289;28;19999;-79
2022/08/31 03:39:56;;;;;;;;;;;;;;;;;;5075239;28;20023;-79
2022/08/31 03:42:21;;;;;;;;;;;;;;;;;;5075257;28;19916;-79
2022/08/31 03:44:46;;;;;;;;;;;;;;;;;;5074303;28;19959;-78
2022/08/31 03:47:12;;;;;;;;;;;;;;;;;;5074054;28;19973;-78
2022/08/31 03:49:37;;;;;;;;;;;;;;;;;;5074011;28;20037;-78
2022/08/31 03:52:02;;;;;;;;;;;;;;;;;;5073963;28;20275;-78
2022/08/31 03:54:28;;;;;;;;;;;;;;;;;;5056937;28;20370;-79
2022/08/31 03:56:53;;;;;;;;;;;;;;;;;;5077159;28;20252;-78
2022/08/31 03:59:18;;;;;;;;;;;;;;;;;;5075977;28;19921;-78
2022/08/31 04:01:43;;;;;;;;;;;;;;;;;;5056259;28;20378;-78
2022/08/31 04:04:10;;;;;;;;;;;;;;;;;;5075256;28;19997;-78
2022/08/31 04:06:36;;;;;;;;;;;;;;;;;;5072963;28;19918;-78
2022/08/31 04:09:01;;;;;;;;;;;;;;;;;;5072469;28;19917;-78
2022/08/31 04:11:26;;;;;;;;;;;;;;;;;;5055487;28;19978;-78
2022/08/31 04:13:52;;;;;;;;;;;;;;;;;;5072323;28;20014;-78
2022/08/31 04:16:19;;;;;;;;;;;;;;;;;;5056545;28;20367;-79
2022/08/31 04:18:44;;;;;;;;;;;;;;;;;;5074623;28;19912;-78
2022/08/31 04:21:13;;;;;;;;;;;;;;;;;;5072531;28;19925;-79
2022/08/31 04:23:39;;;;;;;;;;;;;;;;;;5072382;28;20410;-78
2022/08/31 04:26:05;;;;;;;;;;;;;;;;;;5055336;28;20002;-78
2022/08/31 04:28:30;;;;;;;;;;;;;;;;;;5055086;28;19916;-78
2022/08/31 04:30:55;;;;;;;;;;;;;;;;;;5072701;28;20248;-79
2022/08/31 04:33:21;;;;;;;;;;;;;;;;;;5073909;28;20347;-78
2022/08/31 04:35:46;;;;;;;;;;;;;;;;;;5073737;28;19920;-80
2022/08/31 04:38:11;;;;;;;;;;;;;;;;;;5072643;28;20393;-79
2022/08/31 04:40:37;;;;;;;;;;;;;;;;;;5055746;28;20003;-80
2022/08/31 04:43:02;;;;;;;;;;;;;;;;;;5072742;28;19963;-78
2022/08/31 04:45:28;;;;;;;;;;;;;;;;;;5072482;28;20278;-79
2022/08/31 04:47:53;;;;;;;;;;;;;;;;;;5072441;28;19919;-80
2022/08/31 04:50:19;;;;;;;;;;;;;;;;;;5072582;28;19912;-80
2022/08/31 04:52:44;;;;;;;;;;;;;;;;;;5072652;28;19965;-79
2022/08/31 04:55:10;;;;;;;;;;;;;;;;;;5072455;28;19912;-79
2022/08/31 04:57:35;;;;;;;;;;;;;;;;;;5073330;28;20359;-79
2022/08/31 05:00:01;;;;;;;;;;;;;;;;;;5077971;28;19917;-81
2022/08/31 05:02:26;;;;;;;;;;;;;;;;;;5076664;28;19920;-81
2022/08/31 05:04:52;;;;;;;;;;;;;;;;;;5077886;28;19917;-81
2022/08/31 05:07:17;;;;;;;;;;;;;;;;;;5059602;28;19928;-80
2022/08/31 05:09:42;;;;;;;;;;;;;;;;;;5076268;28;19958;-80
2022/08/31 05:12:07;;;;;;;;;;;;;;;;;;5076509;28;20363;-80
2022/08/31 05:14:34;;;;;;;;;;;;;;;;;;5077678;28;19920;-80
2022/08/31 05:17:00;;;;;;;;;;;;;;;;;;5077375;28;20343;-79
2022/08/31 05:19:25;;;;;;;;;;;;;;;;;;5076997;28;19913;-79
2022/08/31 05:21:51;;;;;;;;;;;;;;;;;;5058999;28;19932;-79
2022/08/31 05:24:17;;;;;;;;;;;;;;;;;;5076499;28;19947;-79
2022/08/31 05:26:43;;;;;;;;;;;;;;;;;;5075884;28;19923;-79
2022/08/31 05:29:09;;;;;;;;;;;;;;;;;;5075804;28;20018;-80
2022/08/31 05:31:35;;;;;;;;;;;;;;;;;;5075742;28;19913;-80
2022/08/31 05:34:00;;;;;;;;;;;;;;;;;;5076835;28;19916;-79
2022/08/31 05:36:25;;;;;;;;;;;;;;;;;;5058881;28;19922;-79
2022/08/31 05:38:52;;;;;;;;;;;;;;;;;;5075647;28;19912;-79
2022/08/31 05:41:18;;;;;;;;;;;;;;;;;;5058960;28;19961;-79
2022/08/31 05:43:43;;;;;;;;;;;;;;;;;;5075514;28;19916;-80
2022/08/31 05:46:09;;;;;;;;;;;;;;;;;;5058662;28;19919;-79
2022/08/31 05:48:36;;;;;;;;;;;;;;;;;;5058763;28;19912;-80
2022/08/31 05:51:06;;;;;;;;;;;;;;;;;;5058945;28;19920;-80
2022/08/31 05:53:32;;;;;;;;;;;;;;;;;;5058629;28;19913;-80
2022/08/31 05:56:01;;;;;;;;;;;;;;;;;;5058448;28;20007;-80
2022/08/31 05:58:27;;;;;;;;;;;;;;;;;;5075350;28;19959;-79
2022/08/31 06:00:52;;;;;;;;;;;;;;;;;;5075263;28;19920;-80
2022/08/31 06:03:17;;;;;;;;;;;;;;;;;;5058415;28;19921;-80
2022/08/31 06:05:43;;;;;;;;;;;;;;;;;;5058365;28;19919;-80
2022/08/31 06:08:08;;;;;;;;;;;;;;;;;;5058070;28;20011;-80
2022/08/31 06:10:33;;;;;;;;;;;;;;;;;;5058345;28;20378;-80
2022/08/31 06:13:00;;;;;;;;;;;;;;;;;;5075062;28;19912;-80
2022/08/31 06:15:26;;;;;;;;;;;;;;;;;;5076480;28;19947;-79
2022/08/31 06:17:51;;;;;;;;;;;;;;;;;;5076378;28;20350;-80
2022/08/31 06:20:17;;;;;;;;;;;;;;;;;;5074828;28;19916;-79
2022/08/31 06:22:45;;;;;;;;;;;;;;;;;;5058190;28;19924;-79
2022/08/31 06:25:13;;;;;;;;;;;;;;;;;;5075130;28;19916;-79
2022/08/31 06:27:39;;;;;;;;;;;;;;;;;;5074820;28;20061;-79
2022/08/31 06:30:06;;;;;;;;;;;;;;;;;;5058195;28;20013;-79
2022/08/31 06:32:31;;;;;;;;;;;;;;;;;;5074658;28;20363;-79
2022/08/31 06:34:56;;;;;;;;;;;;;;;;;;5057863;28;19916;-79
2022/08/31 06:37:22;;;;;;;;;;;;;;;;;;5075662;28;19921;-79
2022/08/31 06:39:50;;;;;;;;;;;;;;;;;;5057710;28;19920;-79
2022/08/31 06:42:15;;;;;;;;;;;;;;;;;;5074700;28;19948;-79
2022/08/31 06:44:41;;;;;;;;;;;;;;;;;;5074547;28;20371;-79
2022/08/31 06:47:06;;;;;;;;;;;;;;;;;;5074463;28;19917;-79
2022/08/31 06:49:31;;;;;;;;;;;;;;;;;;5057555;28;19913;-79
2022/08/31 06:51:59;;;;;;;;;;;;;;;;;;5076287;28;20363;-80
2022/08/31 06:54:25;;;;;;;;;;;;;;;;;;5074278;28;19924;-80
2022/08/31 06:56:50;;;;;;;;;;;;;;;;;;5074314;28;19916;-80
2022/08/31 06:59:15;;;;;;;;;;;;;;;;;;5075337;28;19924;-80
2022/08/31 07:01:40;;;;;;;;;;;;;;;;;;5075596;28;20027;-80
2022/08/31 07:04:07;;;;;;;;;;;;;;;;;;5074142;28;19917;-79
2022/08/31 07:06:37;;;;;;;;;;;;;;;;;;5057387;28;20010;-80
2022/08/31 07:09:03;;;;;;;;;;;;;;;;;;5073930;28;19918;-79
2022/08/31 07:11:32;;;;;;;;;;;;;;;;;;5075221;28;20280;-79
2022/08/31 07:13:58;;;;;;;;;;;;;;;;;;5057641;28;20134;-79
2022/08/31 07:16:23;;;;;;;;;;;;;;;;;;5074066;28;19916;-80
2022/08/31 07:18:49;;;;;;;;;;;;;;;;;;5056927;28;20318;-79
2022/08/31 07:21:15;;;;;;;;;;;;;;;;;;5073001;28;20346;-79
2022/08/31 07:23:41;;;;;;;;;;;;;;;;;;5073072;28;19959;-79
2022/08/31 07:26:07;;;;;;;;;;;;;;;;;;5056732;28;19912;-79
2022/08/31 07:28:32;;;;;;;;;;;;;;;;;;5075104;28;19999;-78
2022/08/31 07:30:58;;;;;;;;;;;;;;;;;;5073934;28;19989;-79
2022/08/31 07:33:23;;;;;;;;;;;;;;;;;;5075779;28;20482;-79
2022/08/31 07:35:49;;;;;;;;;;;;;;;;;;5074921;28;20054;-79
2022/08/31 07:43:42;;;;;;;;;;;;;;;;;;5074449;28;19919;-80
2022/08/31 07:46:08;;;;;;;;;;;;;;;;;;5077275;28;19970;-81
2022/08/31 07:48:34;;;;;;;;;;;;;;;;;;5078094;28;20049;-79
2022/08/31 07:50:59;;;;;;;;;;;;;;;;;;5076203;28;19974;-79
2022/08/31 07:53:24;;;;;;;;;;;;;;;;;;5078475;28;19917;-79
2022/08/31 07:55:55;;;;;;;;;;;;;;;;;;5077102;28;20400;-80
2022/08/31 07:58:21;;;;;;;;;;;;;;;;;;5074876;28;19924;-79
2022/08/31 08:00:48;;;;;;;;;;;;;;;;;;5075069;28;19912;-78
2022/08/31 08:03:13;;;;;;;;;;;;;;;;;;5076427;28;19916;-79
2022/08/31 08:05:40;;;;;;;;;;;;;;;;;;5059634;28;19978;-75
2022/08/31 08:08:07;;;;;;;;;;;;;;;;;;5064614;28;19912;-75
2022/08/31 08:10:32;;;;;;;;;;;;;;;;;;5062219;28;20394;-79
2022/08/31 08:13:01;;;;;;;;;;;;;;;;;;5076882;28;19916;-78
2022/08/31 08:15:27;;;;;;;;;;;;;;;;;;5058090;28;19912;-77
2022/08/31 08:17:52;;;;;;;;;;;;;;;;;;5073330;28;20443;-78
2022/08/31 08:20:18;;;;;;;;;;;;;;;;;;5056249;28;19928;-79
2022/08/31 08:22:43;;;;;;;;;;;;;;;;;;5072887;28;20007;-76
2022/08/31 08:25:09;;;;;;;;;;;;;;;;;;5074254;28;20282;-78
2022/08/31 08:27:35;;;;;;;;;;;;;;;;;;5057586;28;19948;-77
2022/08/31 08:30:00;;;;;;;;;;;;;;;;;;5056258;28;20255;-77
2022/08/31 08:32:26;;;;;;;;;;;;;;;;;;5056131;28;19951;-77
2022/08/31 08:34:51;;;;;;;;;;;;;;;;;;5055964;28;19959;-77
2022/08/31 08:37:17;;;;;;;;;;;;;;;;;;5073992;28;20260;-77
2022/08/31 08:39:42;;;;;;;;;;;;;;;;;;5055783;28;19940;-77
2022/08/31 08:42:08;;;;;;;;;;;;;;;;;;5056446;28;19967;-78
2022/08/31 08:44:34;;;;;;;;;;;;;;;;;;5055827;28;19961;-77
2022/08/31 08:47:00;;;;;;;;;;;;;;;;;;5073087;28;19978;-78
2022/08/31 08:49:45;;;;;;;;;;;;;;;;;;5056452;28;19994;-78
2022/08/31 08:52:16;;;;;;;;;;;;;;;;;;5074732;28;19998;-78
2022/08/31 08:54:42;;;;;;;;;;;;;;;;;;5072914;28;20389;-77
2022/08/31 08:57:15;;;;;;;;;;;;;;;;;;5072825;28;20363;-77
2022/08/31 08:59:41;;;;;;;;;;;;;;;;;;5055803;28;19912;-78
2022/08/31 09:02:07;;;;;;;;;;;;;;;;;;5073054;28;20282;-78
2022/08/31 09:04:58;;;;;;;;;;;;;;;;;;5073134;28;19916;-77
2022/08/31 09:07:36;;;;;;;;;;;;;;;;;;5072982;28;20046;-77
2022/08/31 09:10:01;;;;;;;;;;;;;;;;;;5056792;28;19913;-78
2022/08/31 09:12:34;;;;;;;;;;;;;;;;;;5056060;28;20359;-78
2022/08/31 09:15:14;;;;;;;;;;;;;;;;;;5055517;28;19998;-78
2022/08/31 09:17:39;;;;;;;;;;;;;;;;;;5072361;28;19920;-78
2022/08/31 09:20:05;;;;;;;;;;;;;;;;;;5073659;28;20386;-77
2022/08/31 09:22:32;;;;;;;;;;;;;;;;;;5055240;28;19924;-77
2022/08/31 09:24:58;;;;;;;;;;;;;;;;;;5055219;28;19913;-77
2022/08/31 09:27:44;;;;;;;;;;;;;;;;;;5055823;28;19913;-77
2022/08/31 09:30:10;;;;;;;;;;;;;;;;;;5055292;28;19951;-78
2022/08/31 09:32:36;;;;;;;;;;;;;;;;;;5073275;28;19916;-76
2022/08/31 09:35:02;;;;;;;;;;;;;;;;;;5073383;28;19912;-76
2022/08/31 09:37:32;;;;;;;;;;;;;;;;;;5055234;28;19927;-77
2022/08/31 09:40:13;;;;;;;;;;;;;;;;;;5072835;28;19920;-77
2022/08/31 09:42:38;;;;;;;;;;;;;;;;;;5072457;28;19924;-78
2022/08/31 09:45:06;;;;;;;;;;;;;;;;;;5075203;28;19912;-77
2022/08/31 09:47:47;;;;;;;;;;;;;;;;;;5047252;28;19972;-78
2022/08/31 09:50:29;;;;;;;;;;;;;;;;;;5069990;28;19922;-78
2022/08/31 09:56:12;;;;;;;;;;;;;;;;;;5072215;28;20567;-79
2022/08/31 09:58:38;;;;;;;;;;;;;;;;;;5038062;28;19913;-80
2022/08/31 10:01:12;;;;;;;;;;;;;;;;;;5038205;28;19912;-80
2022/08/31 10:03:37;;;;;;;;;;;;;;;;;;5047126;28;20255;-80
2022/08/31 10:06:04;;;;;;;;;;;;;;;;;;5066662;28;19931;-79
2022/08/31 10:08:40;;;;;;;;;;;;;;;;;;5039313;28;19952;-80
2022/08/31 10:11:15;;;;;;;;;;;;;;;;;;5051533;28;20003;-80
2022/08/31 10:13:55;;;;;;;;;;;;;;;;;;5055329;28;19938;-79
2022/08/31 10:16:32;;;;;;;;;;;;;;;;;;5037350;28;19971;-82
2022/08/31 10:19:05;;;;;;;;;;;;;;;;;;5040732;28;19912;-79
2022/08/31 10:21:34;;;;;;;;;;;;;;;;;;5053005;28;20298;-79
2022/08/31 10:24:27;;;;;;;;;;;;;;;;;;5084532;28;19924;-80
2022/08/31 10:26:55;;;;;;;;;;;;;;;;;;5085747;28;19927;-79
2022/08/31 10:29:40;;;;;;;;;;;;;;;;;;5091556;28;19913;-79
2022/08/31 10:32:12;;;;;;;;;;;;;;;;;;5077439;28;19913;-79
2022/08/31 10:37:23;;;;;;;;;;;;;;;;;;5091108;28;19923;-79
2022/08/31 10:39:51;;;;;;;;;;;;;;;;;;5086987;28;19913;-79
2022/08/31 10:42:23;;;;;;;;;;;;;;;;;;5073499;28;19917;-78
2022/08/31 10:44:56;;;;;;;;;;;;;;;;;;5073423;28;19917;-80
2022/08/31 10:47:27;;;;;;;;;;;;;;;;;;5062658;28;19916;-79
2022/08/31 10:49:54;;;;;;;;;;;;;;;;;;5075493;28;19912;-78
2022/08/31 10:52:28;;;;;;;;;;;;;;;;;;5056799;28;19919;-79
2022/08/31 10:55:05;;;;;;;;;;;;;;;;;;5078835;28;19978;-78
2022/08/31 10:58:00;;;;;;;;;;;;;;;;;;5056919;28;20328;-77
2022/08/31 11:00:46;;;;;;;;;;;;;;;;;;5060815;28;19913;-76
2022/08/31 11:03:30;;;;;;;;;;;;;;;;;;5058050;28;19917;-76
2022/08/31 11:05:57;;;;;;;;;;;;;;;;;;5073736;28;19913;-77
2022/08/31 11:08:23;;;;;;;;;;;;;;;;;;5068706;28;20294;-76
2022/08/31 11:10:52;;;;;;;;;;;;;;;;;;5091657;28;19970;-77
2022/08/31 11:13:37;;;;;;;;;;;;;;;;;;5086491;28;19912;-77
2022/08/31 11:16:08;;;;;;;;;;;;;;;;;;5084506;28;19965;-77
2022/08/31 11:18:50;;;;;;;;;;;;;;;;;;5080603;28;20003;-78
2022/08/31 11:21:25;;;;;;;;;;;;;;;;;;5066337;28;19978;-77
2022/08/31 11:24:10;;;;;;;;;;;;;;;;;;5039502;28;19955;-77
2022/08/31 11:26:54;;;;;;;;;;;;;;;;;;5071171;28;19935;-77
2022/08/31 11:29:31;;;;;;;;;;;;;;;;;;5064144;28;19913;-77
2022/08/31 11:31:59;;;;;;;;;;;;;;;;;;5069941;28;19912;-77
2022/08/31 11:34:26;;;;;;;;;;;;;;;;;;5069376;28;19913;-77
2022/08/31 11:36:52;;;;;;;;;;;;;;;;;;5086521;28;19917;-77
2022/08/31 11:39:17;;;;;;;;;;;;;;;;;;5058475;28;19920;-77
2022/08/31 11:41:46;;;;;;;;;;;;;;;;;;5035573;28;19913;-78
2022/08/31 11:44:28;;;;;;;;;;;;;;;;;;5052986;28;19920;-77
2022/08/31 11:47:07;;;;;;;;;;;;;;;;;;5071120;28;19913;-78
2022/08/31 11:49:37;;;;;;;;;;;;;;;;;;5071932;28;20286;-78
2022/08/31 11:52:07;;;;;;;;;;;;;;;;;;5035494;28;20367;-79
2022/08/31 11:54:41;;;;;;;;;;;;;;;;;;5031857;28;19939;-78
2022/08/31 11:57:14;;;;;;;;;;;;;;;;;;5068555;28;19933;-78
2022/08/31 11:59:40;;;;;;;;;;;;;;;;;;5055221;28;19912;-77
2022/08/31 12:02:35;;;;;;;;;;;;;;;;;;5035197;28;19917;-78
2022/08/31 12:05:01;;;;;;;;;;;;;;;;;;5048384;28;19958;-77
2022/08/31 12:07:33;;;;;;;;;;;;;;;;;;5018439;28;19921;-77
2022/08/31 12:10:13;;;;;;;;;;;;;;;;;;5052908;28;19916;-77
2022/08/31 12:12:47;;;;;;;;;;;;;;;;;;5053364;28;19959;-77
2022/08/31 12:15:31;;;;;;;;;;;;;;;;;;5019208;28;20329;-78
2022/08/31 12:18:05;;;;;;;;;;;;;;;;;;5068424;28;19974;-77
2022/08/31 12:20:30;;;;;;;;;;;;;;;;;;5070697;28;20002;-80
2022/08/31 12:26:00;;;;;;;;;;;;;;;;;;5082194;28;19965;-77
2022/08/31 12:28:44;;;;;;;;;;;;;;;;;;5033315;28;19912;-79
2022/08/31 12:31:11;;;;;;;;;;;;;;;;;;5071591;28;19912;-78
2022/08/31 12:33:37;;;;;;;;;;;;;;;;;;5053576;28;19919;-79
2022/08/31 12:36:12;;;;;;;;;;;;;;;;;;5089286;28;19916;-79
2022/08/31 12:38:37;;;;;;;;;;;;;;;;;;5090472;28;20387;-79
2022/08/31 12:41:02;;;;;;;;;;;;;;;;;;5078271;28;19912;-78
2022/08/31 12:43:36;;;;;;;;;;;;;;;;;;5080574;28;19920;-78
2022/08/31 12:46:11;;;;;;;;;;;;;;;;;;5089569;28;19920;-78
2022/08/31 12:48:40;;;;;;;;;;;;;;;;;;5081009;28;19912;-78
2022/08/31 12:51:11;;;;;;;;;;;;;;;;;;5072463;28;19917;-77
2022/08/31 12:53:44;;;;;;;;;;;;;;;;;;5071418;28;19921;-77
2022/08/31 12:56:14;;;;;;;;;;;;;;;;;;5054499;28;19919;-76
2022/08/31 12:58:53;;;;;;;;;;;;;;;;;;5071130;28;19966;-77
2022/08/31 13:01:20;;;;;;;;;;;;;;;;;;5070015;28;19917;-77
2022/08/31 13:03:47;;;;;;;;;;;;;;;;;;5072168;28;19961;-77
2022/08/31 13:06:13;;;;;;;;;;;;;;;;;;5089426;28;19912;-77
2022/08/31 13:08:43;;;;;;;;;;;;;;;;;;5088959;28;19922;-77
2022/08/31 13:11:15;;;;;;;;;;;;;;;;;;5088441;28;19916;-77
2022/08/31 13:13:40;;;;;;;;;;;;;;;;;;5081655;28;20316;-77
2022/08/31 13:16:07;;;;;;;;;;;;;;;;;;5072551;28;19938;-78
2022/08/31 13:18:32;;;;;;;;;;;;;;;;;;5071593;28;19912;-77
2022/08/31 13:21:04;;;;;;;;;;;;;;;;;;5073202;28;19969;-79
2022/08/31 13:23:39;;;;;;;;;;;;;;;;;;5039233;28;20345;-79
2022/08/31 13:26:19;;;;;;;;;;;;;;;;;;5054967;28;19970;-79
2022/08/31 13:28:49;;;;;;;;;;;;;;;;;;5070604;28;19927;-78
2022/08/31 13:31:18;;;;;;;;;;;;;;;;;;5073382;28;19912;-79
2022/08/31 13:33:43;;;;;;;;;;;;;;;;;;5073214;28;19919;-78
2022/08/31 13:36:10;;;;;;;;;;;;;;;;;;5075730;28;19917;-79
2022/08/31 13:38:45;;;;;;;;;;;;;;;;;;5073289;28;19917;-78
2022/08/31 13:41:15;;;;;;;;;;;;;;;;;;5041982;28;20256;-79
2022/08/31 13:43:41;;;;;;;;;;;;;;;;;;5055099;28;19920;-78
2022/08/31 13:46:06;;;;;;;;;;;;;;;;;;5058095;28;19920;-78
2022/08/31 13:48:32;;;;;;;;;;;;;;;;;;5050995;28;19962;-78
2022/08/31 13:51:05;;;;;;;;;;;;;;;;;;5056671;28;19990;-78
2022/08/31 13:53:45;;;;;;;;;;;;;;;;;;5063061;28;19925;-78
2022/08/31 13:59:21;;;;;;;;;;;;;;;;;;5079775;28;19955;-79
2022/08/31 14:01:58;;;;;;;;;;;;;;;;;;5077654;28;19912;-79
2022/08/31 14:04:47;;;;;;;;;;;;;;;;;;5075367;28;19912;-79
2022/08/31 14:07:23;;;;;;;;;;;;;;;;;;5076702;28;19913;-78
2022/08/31 14:10:14;;;;;;;;;;;;;;;;;;5077119;28;19916;-79
2022/08/31 14:12:49;;;;;;;;;;;;;;;;;;5077618;28;19948;-78
2022/08/31 14:15:16;;;;;;;;;;;;;;;;;;5040296;28;19920;-79
2022/08/31 14:17:46;;;;;;;;;;;;;;;;;;5056546;28;19982;-79
2022/08/31 14:20:25;;;;;;;;;;;;;;;;;;5056432;28;19913;-79
2022/08/31 14:22:50;;;;;;;;;;;;;;;;;;5074457;28;20018;-79
2022/08/31 14:25:18;;;;;;;;;;;;;;;;;;5085666;28;19970;-79
2022/08/31 14:27:44;;;;;;;;;;;;;;;;;;5094474;28;19955;-79
2022/08/31 14:30:09;;;;;;;;;;;;;;;;;;5084263;28;19963;-79
2022/08/31 14:32:34;;;;;;;;;;;;;;;;;;5057894;28;19916;-79
2022/08/31 14:35:01;;;;;;;;;;;;;;;;;;5066664;28;19955;-79
2022/08/31 14:37:29;;;;;;;;;;;;;;;;;;5057511;28;19920;-78
2022/08/31 14:39:56;;;;;;;;;;;;;;;;;;5057983;28;19917;-78
2022/08/31 14:42:23;;;;;;;;;;;;;;;;;;5068675;28;19966;-79
2022/08/31 14:44:55;;;;;;;;;;;;;;;;;;5094044;28;19916;-79
2022/08/31 14:47:26;;;;;;;;;;;;;;;;;;5057993;28;19946;-78
2022/08/31 14:49:51;;;;;;;;;;;;;;;;;;5043899;28;19912;-78
2022/08/31 14:52:16;;;;;;;;;;;;;;;;;;5074961;28;19921;-79
2022/08/31 14:54:42;;;;;;;;;;;;;;;;;;5040514;28;20009;-80
2022/08/31 14:57:26;;;;;;;;;;;;;;;;;;5073726;28;19978;-80
2022/08/31 14:59:55;;;;;;;;;;;;;;;;;;5074985;28;20374;-79
2022/08/31 15:02:21;;;;;;;;;;;;;;;;;;5074598;28;19912;-79
2022/08/31 15:04:47;;;;;;;;;;;;;;;;;;5079590;28;19919;-80
2022/08/31 15:07:12;;;;;;;;;;;;;;;;;;5063675;28;19915;-79
2022/08/31 15:09:41;;;;;;;;;;;;;;;;;;5064706;28;19965;-79
2022/08/31 15:12:06;;;;;;;;;;;;;;;;;;5082118;28;19916;-79
2022/08/31 15:14:35;;;;;;;;;;;;;;;;;;5061821;28;19969;-79
2022/08/31 15:17:04;;;;;;;;;;;;;;;;;;5078459;28;20011;-80
2022/08/31 15:19:30;;;;;;;;;;;;;;;;;;5064631;28;19913;-79
2022/08/31 15:21:59;;;;;;;;;;;;;;;;;;5067944;28;19977;-79
2022/08/31 15:24:24;;;;;;;;;;;;;;;;;;5078646;28;19945;-79
2022/08/31 15:26:51;;;;;;;;;;;;;;;;;;5060478;28;19912;-78
2022/08/31 15:29:17;;;;;;;;;;;;;;;;;;5077438;28;19912;-79
2022/08/31 15:31:45;;;;;;;;;;;;;;;;;;5060423;28;20461;-79
2022/08/31 15:34:20;;;;;;;;;;;;;;;;;;5077583;28;20017;-79
2022/08/31 15:36:53;;;;;;;;;;;;;;;;;;5060071;28;20378;-79
2022/08/31 15:39:19;;;;;;;;;;;;;;;;;;5077023;28;19928;-79
2022/08/31 15:41:46;;;;;;;;;;;;;;;;;;5094499;28;20009;-79
2022/08/31 15:44:11;;;;;;;;;;;;;;;;;;5095282;28;19916;-78
2022/08/31 15:49:21;;;;;;;;;;;;;;;;;;5080094;28;20274;-77
2022/08/31 15:51:49;;;;;;;;;;;;;;;;;;5076910;28;19920;-78
2022/08/31 15:54:15;;;;;;;;;;;;;;;;;;5077349;28;20363;-79
2022/08/31 15:56:41;;;;;;;;;;;;;;;;;;5060031;28;19970;-80
2022/08/31 15:59:08;;;;;;;;;;;;;;;;;;5077107;28;20406;-78
2022/08/31 16:01:34;;;;;;;;;;;;;;;;;;5095281;28;19923;-78
2022/08/31 16:04:00;;;;;;;;;;;;;;;;;;5076512;28;19917;-77
2022/08/31 16:06:26;;;;;;;;;;;;;;;;;;5076800;28;19962;-77
2022/08/31 16:08:54;;;;;;;;;;;;;;;;;;5076676;28;19919;-77
2022/08/31 16:11:19;;;;;;;;;;;;;;;;;;5076498;28;19923;-77
2022/08/31 16:13:53;;;;;;;;;;;;;;;;;;5076314;28;20294;-77
2022/08/31 16:16:18;;;;;;;;;;;;;;;;;;5094486;28;20370;-78
2022/08/31 16:18:47;;;;;;;;;;;;;;;;;;5076782;28;19912;-80
2022/08/31 16:21:13;;;;;;;;;;;;;;;;;;5076249;28;19928;-76
2022/08/31 16:23:39;;;;;;;;;;;;;;;;;;5094144;28;19927;-78
2022/08/31 16:26:05;;;;;;;;;;;;;;;;;;5094518;28;19920;-79
2022/08/31 16:28:30;;;;;;;;;;;;;;;;;;5093339;28;20362;-78
2022/08/31 16:30:55;;;;;;;;;;;;;;;;;;5076242;28;19969;-78
2022/08/31 16:33:21;;;;;;;;;;;;;;;;;;5094335;28;19924;-78
2022/08/31 16:35:46;;;;;;;;;;;;;;;;;;5076409;28;20088;-77
2022/08/31 16:38:12;;;;;;;;;;;;;;;;;;5075913;28;19921;-79
2022/08/31 16:40:37;;;;;;;;;;;;;;;;;;5094722;28;20290;-79
2022/08/31 16:43:02;;;;;;;;;;;;;;;;;;5094174;28;20359;-78
2022/08/31 16:45:28;;;;;;;;;;;;;;;;;;5094360;28;19927;-78
2022/08/31 16:49:32;;;;;;;;;;;;;;;;;;5094546;28;19920;-78
2022/08/31 16:50:43;;;;;;;;;;;;;;;;;;5095855;28;19924;-79
2022/08/31 16:53:08;;;;;;;;;;;;;;;;;;5079028;28;19912;-79
2022/08/31 16:55:38;;;;;;;;;;;;;;;;;;5098834;28;19916;-79
2022/08/31 16:58:04;;;;;;;;;;;;;;;;;;5097628;28;19916;-78
2022/08/31 17:00:29;;;;;;;;;;;;;;;;;;5097961;28;19922;-78
2022/08/31 17:02:54;;;;;;;;;;;;;;;;;;5080001;28;19923;-79
2022/08/31 17:05:20;;;;;;;;;;;;;;;;;;5079853;28;19970;-78
2022/08/31 17:07:45;;;;;;;;;;;;;;;;;;5098221;28;19923;-78
2022/08/31 17:10:11;;;;;;;;;;;;;;;;;;5079510;28;19916;-78
2022/08/31 17:12:37;;;;;;;;;;;;;;;;;;5080410;28;19918;-78
2022/08/31 17:15:03;;;;;;;;;;;;;;;;;;5097712;28;19923;-78
2022/08/31 17:17:29;;;;;;;;;;;;;;;;;;5096358;28;19916;-78